PWSweather.com
Personal Weather Stations
Station Observations
DW6359
Southwest Cambria, Cambria, WI 53923

Southwest CambriaCambria, WI 53923

Lat: 43.541194, Lon: -89.11275

Elevation: 945

Station Type: Davis Vantage Pro2

http://home.centurytel.net/weathercambria/wxcambria.html

High Low Average
Temperature 34.1°F1.2°C 1.9°F-16.7°C 9.6°F-12.4°C
Dew Point 26.6°F-3.0°C -10.2°F-23.4°C -1.6°F-18.7°C
Winds 27.0 mph 43.5 kmh 1.0 mph 1.6 kmh 10.0 mph WNW16.1 kmh WNW
Wind Gusts 32.0 mph51.5 kmh -- 4.0 mph6.4 kmh
Humidity 80% 48% 60%
Pressure 30.57 in1035.2 mb 29.80 in1009.1 mb -
Precipitation 0.00 in0.0 mm - -
Hour Temp Dew Point Humidity Winds Wind Gusts Pressure Precip Precip Rate Daily Precip Total
12:00 AM 32.7°F0.4°C 23.0°F-5.0°C 67% 2.0 mph SW3.2 kmh SW -- 29.81 in1009.5 mb 0.00 in0.0 mm 0.00 in0.0 mm 0.00 in0.0 mm
12:05 AM 32.6°F0.3°C 22.9°F-5.1°C 67% 2.0 mph WSW3.2 kmh WSW -- 29.80 in1009.1 mb 0.00 in0.0 mm 0.00 in0.0 mm 0.00 in0.0 mm
12:10 AM 32.6°F0.3°C 22.9°F-5.1°C 67% Calm Calm -- 29.80 in1009.1 mb 0.00 in0.0 mm 0.00 in0.0 mm 0.00 in0.0 mm
12:15 AM 32.5°F0.3°C 22.8°F-5.1°C 67% 2.0 mph SW3.2 kmh SW -- 29.81 in1009.5 mb 0.00 in0.0 mm 0.00 in0.0 mm 0.00 in0.0 mm
12:20 AM 32.5°F0.3°C 22.8°F-5.1°C 67% 2.0 mph SW3.2 kmh SW -- 29.81 in1009.5 mb 0.00 in0.0 mm 0.00 in0.0 mm 0.00 in0.0 mm
12:25 AM 32.5°F0.3°C 22.8°F-5.1°C 67% 2.0 mph WSW3.2 kmh WSW -- 29.81 in1009.5 mb 0.00 in0.0 mm 0.00 in0.0 mm 0.00 in0.0 mm
12:30 AM 32.5°F0.3°C 23.1°F-4.9°C 68% Calm Calm -- 29.81 in1009.5 mb 0.00 in0.0 mm 0.00 in0.0 mm 0.00 in0.0 mm
12:35 AM 32.3°F0.2°C 22.9°F-5.1°C 68% Calm Calm -- 29.81 in1009.5 mb 0.00 in0.0 mm 0.00 in0.0 mm 0.00 in0.0 mm
12:40 AM 32.3°F0.2°C 23.3°F-4.8°C 69% Calm Calm 6.0 mph9.7 kmh 29.81 in1009.5 mb 0.00 in0.0 mm 0.00 in0.0 mm 0.00 in0.0 mm
12:45 AM 32.3°F0.2°C 22.9°F-5.1°C 68% 2.0 mph SW3.2 kmh SW 6.0 mph9.7 kmh 29.81 in1009.5 mb 0.00 in0.0 mm 0.00 in0.0 mm 0.00 in0.0 mm
12:50 AM 32.5°F0.3°C 23.1°F-4.9°C 68% 1.0 mph SW1.6 kmh SW -- 29.81 in1009.5 mb 0.00 in0.0 mm 0.00 in0.0 mm 0.00 in0.0 mm
12:55 AM 32.6°F0.3°C 22.9°F-5.1°C 67% 3.0 mph SW4.8 kmh SW -- 29.81 in1009.5 mb 0.00 in0.0 mm 0.00 in0.0 mm 0.00 in0.0 mm
01:00 AM 32.7°F0.4°C 23.0°F-5.0°C 67% 1.0 mph WSW1.6 kmh WSW -- 29.80 in1009.1 mb 0.00 in0.0 mm 0.00 in0.0 mm 0.00 in0.0 mm
01:05 AM 32.7°F0.4°C 23.0°F-5.0°C 67% 4.0 mph SW6.4 kmh SW -- 29.80 in1009.1 mb 0.00 in0.0 mm 0.00 in0.0 mm 0.00 in0.0 mm
01:10 AM 32.7°F0.4°C 23.3°F-4.8°C 68% 1.0 mph SW1.6 kmh SW -- 29.80 in1009.1 mb 0.00 in0.0 mm 0.00 in0.0 mm 0.00 in0.0 mm
01:15 AM 32.8°F0.4°C 23.4°F-4.8°C 68% 7.0 mph SW11.3 kmh SW -- 29.80 in1009.1 mb 0.00 in0.0 mm 0.00 in0.0 mm 0.00 in0.0 mm
01:20 AM 32.8°F0.4°C 23.4°F-4.8°C 68% 7.0 mph WSW11.3 kmh WSW -- 29.80 in1009.1 mb 0.00 in0.0 mm 0.00 in0.0 mm 0.00 in0.0 mm
01:25 AM 33.0°F0.6°C 24.0°F-4.4°C 69% 7.0 mph WSW11.3 kmh WSW -- 29.80 in1009.1 mb 0.00 in0.0 mm 0.00 in0.0 mm 0.00 in0.0 mm
01:30 AM 33.3°F0.7°C 24.6°F-4.1°C 70% 9.0 mph WSW14.5 kmh WSW 15.0 mph24.1 kmh 29.80 in1009.1 mb 0.00 in0.0 mm 0.00 in0.0 mm 0.00 in0.0 mm
01:35 AM 33.6°F0.9°C 25.2°F-3.8°C 71% 5.0 mph WSW8.0 kmh WSW 15.0 mph24.1 kmh 29.80 in1009.1 mb 0.00 in0.0 mm 0.00 in0.0 mm 0.00 in0.0 mm
01:40 AM 33.9°F1.1°C 25.8°F-3.4°C 72% 8.0 mph W12.9 kmh W -- 29.80 in1009.1 mb 0.00 in0.0 mm 0.00 in0.0 mm 0.00 in0.0 mm
01:45 AM 34.1°F1.2°C 26.0°F-3.3°C 72% 9.0 mph WSW14.5 kmh WSW -- 29.80 in1009.1 mb 0.00 in0.0 mm 0.00 in0.0 mm 0.00 in0.0 mm
01:50 AM 34.0°F1.1°C 26.3°F-3.2°C 73% 7.0 mph W11.3 kmh W -- 29.80 in1009.1 mb 0.00 in0.0 mm 0.00 in0.0 mm 0.00 in0.0 mm
01:55 AM 33.9°F1.1°C 26.2°F-3.2°C 73% 9.0 mph WSW14.5 kmh WSW -- 29.80 in1009.1 mb 0.00 in0.0 mm 0.00 in0.0 mm 0.00 in0.0 mm
02:00 AM 33.8°F1.0°C 26.4°F-3.1°C 74% 5.0 mph W8.0 kmh W -- 29.80 in1009.1 mb 0.00 in0.0 mm 0.00 in0.0 mm 0.00 in0.0 mm
02:05 AM 33.8°F1.0°C 26.4°F-3.1°C 74% 6.0 mph W9.7 kmh W -- 29.80 in1009.1 mb 0.00 in0.0 mm 0.00 in0.0 mm 0.00 in0.0 mm
02:10 AM 33.8°F1.0°C 26.4°F-3.1°C 74% 6.0 mph W9.7 kmh W -- 29.80 in1009.1 mb 0.00 in0.0 mm 0.00 in0.0 mm 0.00 in0.0 mm
02:15 AM 33.7°F0.9°C 26.3°F-3.2°C 74% 8.0 mph NW12.9 kmh NW -- 29.80 in1009.1 mb 0.00 in0.0 mm 0.00 in0.0 mm 0.00 in0.0 mm
02:20 AM 33.7°F0.9°C 26.6°F-3.0°C 75% 10.0 mph W16.1 kmh W 13.0 mph20.9 kmh 29.81 in1009.5 mb 0.00 in0.0 mm 0.00 in0.0 mm 0.00 in0.0 mm
02:25 AM 33.6°F0.9°C 26.5°F-3.1°C 75% 6.0 mph WNW9.7 kmh WNW 13.0 mph20.9 kmh 29.81 in1009.5 mb 0.00 in0.0 mm 0.00 in0.0 mm 0.00 in0.0 mm
02:30 AM 33.4°F0.8°C 26.3°F-3.2°C 75% 11.0 mph W17.7 kmh W -- 29.81 in1009.5 mb 0.00 in0.0 mm 0.00 in0.0 mm 0.00 in0.0 mm
02:35 AM 33.2°F0.7°C 26.2°F-3.2°C 75% 11.0 mph W17.7 kmh W -- 29.81 in1009.5 mb 0.00 in0.0 mm 0.00 in0.0 mm 0.00 in0.0 mm
02:40 AM 33.0°F0.6°C 26.3°F-3.2°C 76% 17.0 mph W27.4 kmh W -- 29.81 in1009.5 mb 0.00 in0.0 mm 0.00 in0.0 mm 0.00 in0.0 mm
02:45 AM 32.9°F0.5°C 26.2°F-3.2°C 76% 12.0 mph W19.3 kmh W -- 29.82 in1009.8 mb 0.00 in0.0 mm 0.00 in0.0 mm 0.00 in0.0 mm
02:50 AM 32.6°F0.3°C 26.2°F-3.2°C 77% 18.0 mph NW29.0 kmh NW -- 29.82 in1009.8 mb 0.00 in0.0 mm 0.00 in0.0 mm 0.00 in0.0 mm
02:55 AM 32.0°F0.0°C 25.9°F-3.4°C 78% 10.0 mph WNW16.1 kmh WNW -- 29.83 in1010.2 mb 0.00 in0.0 mm 0.00 in0.0 mm 0.00 in0.0 mm
03:00 AM 31.7°F-0.2°C 25.6°F-3.6°C 78% 10.0 mph NW16.1 kmh NW -- 29.83 in1010.2 mb 0.00 in0.0 mm 0.00 in0.0 mm 0.00 in0.0 mm
03:05 AM 31.3°F-0.4°C 25.6°F-3.6°C 79% 15.0 mph WNW24.1 kmh WNW -- 29.83 in1010.2 mb 0.00 in0.0 mm 0.00 in0.0 mm 0.00 in0.0 mm
03:10 AM 30.8°F-0.7°C 25.1°F-3.8°C 79% 7.0 mph WNW11.3 kmh WNW 28.0 mph45.1 kmh 29.84 in1010.5 mb 0.00 in0.0 mm 0.00 in0.0 mm 0.00 in0.0 mm
03:15 AM 30.5°F-0.8°C 24.8°F-4.0°C 79% 14.0 mph NW22.5 kmh NW 28.0 mph45.1 kmh 29.84 in1010.5 mb 0.00 in0.0 mm 0.00 in0.0 mm 0.00 in0.0 mm
03:20 AM 30.0°F-1.1°C 24.6°F-4.1°C 80% 11.0 mph W17.7 kmh W -- 29.85 in1010.8 mb 0.00 in0.0 mm 0.00 in0.0 mm 0.00 in0.0 mm
03:25 AM 29.1°F-1.6°C 23.4°F-4.8°C 79% 16.0 mph NW25.7 kmh NW -- 29.85 in1010.8 mb 0.00 in0.0 mm 0.00 in0.0 mm 0.00 in0.0 mm
03:30 AM 28.7°F-1.8°C 23.0°F-5.0°C 79% 13.0 mph WNW20.9 kmh WNW -- 29.86 in1011.2 mb 0.00 in0.0 mm 0.00 in0.0 mm 0.00 in0.0 mm
03:35 AM 28.5°F-1.9°C 23.1°F-4.9°C 80% 9.0 mph NW14.5 kmh NW -- 29.86 in1011.2 mb 0.00 in0.0 mm 0.00 in0.0 mm 0.00 in0.0 mm
03:40 AM 28.1°F-2.2°C 22.7°F-5.2°C 80% 22.0 mph NW35.4 kmh NW -- 29.86 in1011.2 mb 0.00 in0.0 mm 0.00 in0.0 mm 0.00 in0.0 mm
03:45 AM 27.3°F-2.6°C 22.0°F-5.6°C 80% 16.0 mph NW25.7 kmh NW -- 29.87 in1011.5 mb 0.00 in0.0 mm 0.00 in0.0 mm 0.00 in0.0 mm
03:50 AM 26.0°F-3.3°C 20.4°F-6.4°C 79% 10.0 mph NW16.1 kmh NW -- 29.88 in1011.9 mb 0.00 in0.0 mm 0.00 in0.0 mm 0.00 in0.0 mm
03:55 AM 25.1°F-3.8°C 18.9°F-7.3°C 77% 10.0 mph NW16.1 kmh NW -- 29.88 in1011.9 mb 0.00 in0.0 mm 0.00 in0.0 mm 0.00 in0.0 mm
04:00 AM 24.3°F-4.3°C 17.8°F-7.9°C 76% 7.0 mph NW11.3 kmh NW 27.0 mph43.5 kmh 29.89 in1012.2 mb 0.00 in0.0 mm 0.00 in0.0 mm 0.00 in0.0 mm
04:05 AM 23.8°F-4.6°C 17.4°F-8.1°C 76% 11.0 mph NW17.7 kmh NW 27.0 mph43.5 kmh 29.89 in1012.2 mb 0.00 in0.0 mm 0.00 in0.0 mm 0.00 in0.0 mm
04:10 AM 23.6°F-4.7°C 16.9°F-8.4°C 75% 13.0 mph WNW20.9 kmh WNW -- 29.89 in1012.2 mb 0.00 in0.0 mm 0.00 in0.0 mm 0.00 in0.0 mm
04:15 AM 23.3°F-4.8°C 16.3°F-8.7°C 74% 6.0 mph NW9.7 kmh NW -- 29.90 in1012.5 mb 0.00 in0.0 mm 0.00 in0.0 mm 0.00 in0.0 mm
04:20 AM 23.0°F-5.0°C 16.0°F-8.9°C 74% 8.0 mph NW12.9 kmh NW -- 29.90 in1012.5 mb 0.00 in0.0 mm 0.00 in0.0 mm 0.00 in0.0 mm
04:25 AM 22.4°F-5.3°C 15.1°F-9.4°C 73% 12.0 mph NW19.3 kmh NW -- 29.91 in1012.9 mb 0.00 in0.0 mm 0.00 in0.0 mm 0.00 in0.0 mm
04:30 AM 21.9°F-5.6°C 14.9°F-9.5°C 74% 12.0 mph NW19.3 kmh NW -- 29.91 in1012.9 mb 0.00 in0.0 mm 0.00 in0.0 mm 0.00 in0.0 mm
04:35 AM 21.7°F-5.7°C 14.7°F-9.6°C 74% 20.0 mph W32.2 kmh W -- 29.91 in1012.9 mb 0.00 in0.0 mm 0.00 in0.0 mm 0.00 in0.0 mm
04:40 AM 21.2°F-6.0°C 13.6°F-10.2°C 72% 12.0 mph WNW19.3 kmh WNW -- 29.92 in1013.2 mb 0.00 in0.0 mm 0.00 in0.0 mm 0.00 in0.0 mm
04:45 AM 20.9°F-6.2°C 13.6°F-10.2°C 73% 12.0 mph NNW19.3 kmh NNW -- 29.92 in1013.2 mb 0.00 in0.0 mm 0.00 in0.0 mm 0.00 in0.0 mm
04:50 AM 20.5°F-6.4°C 12.6°F-10.8°C 71% 15.0 mph NW24.1 kmh NW 20.0 mph32.2 kmh 29.93 in1013.5 mb 0.00 in0.0 mm 0.00 in0.0 mm 0.00 in0.0 mm
04:55 AM 19.8°F-6.8°C 11.3°F-11.5°C 69% 11.0 mph NW17.7 kmh NW 20.0 mph32.2 kmh 29.93 in1013.5 mb 0.00 in0.0 mm 0.00 in0.0 mm 0.00 in0.0 mm
05:00 AM 19.3°F-7.1°C 10.5°F-11.9°C 68% 10.0 mph W16.1 kmh W -- 29.94 in1013.9 mb 0.00 in0.0 mm 0.00 in0.0 mm 0.00 in0.0 mm
05:05 AM 18.9°F-7.3°C 10.1°F-12.2°C 68% 13.0 mph NW20.9 kmh NW -- 29.94 in1013.9 mb 0.00 in0.0 mm 0.00 in0.0 mm 0.00 in0.0 mm
05:10 AM 18.6°F-7.4°C 9.8°F-12.3°C 68% 14.0 mph NW22.5 kmh NW -- 29.94 in1013.9 mb 0.00 in0.0 mm 0.00 in0.0 mm 0.00 in0.0 mm
05:15 AM 18.4°F-7.6°C 10.0°F-12.2°C 69% 21.0 mph W33.8 kmh W -- 29.95 in1014.2 mb 0.00 in0.0 mm 0.00 in0.0 mm 0.00 in0.0 mm
05:20 AM 18.1°F-7.7°C 9.7°F-12.4°C 69% 18.0 mph NW29.0 kmh NW -- 29.95 in1014.2 mb 0.00 in0.0 mm 0.00 in0.0 mm 0.00 in0.0 mm
05:25 AM 17.9°F-7.8°C 9.5°F-12.5°C 69% 13.0 mph NW20.9 kmh NW -- 29.96 in1014.6 mb 0.00 in0.0 mm 0.00 in0.0 mm 0.00 in0.0 mm
05:30 AM 17.6°F-8.0°C 9.2°F-12.7°C 69% 12.0 mph WNW19.3 kmh WNW -- 29.96 in1014.6 mb 0.00 in0.0 mm 0.00 in0.0 mm 0.00 in0.0 mm
05:35 AM 17.3°F-8.2°C 8.9°F-12.8°C 69% 10.0 mph NW16.1 kmh NW -- 29.97 in1014.9 mb 0.00 in0.0 mm 0.00 in0.0 mm 0.00 in0.0 mm
05:40 AM 16.7°F-8.5°C 8.3°F-13.2°C 69% 10.0 mph NW16.1 kmh NW 21.0 mph33.8 kmh 29.97 in1014.9 mb 0.00 in0.0 mm 0.00 in0.0 mm 0.00 in0.0 mm
05:45 AM 16.1°F-8.8°C 7.4°F-13.7°C 68% 14.0 mph NW22.5 kmh NW 21.0 mph33.8 kmh 29.98 in1015.2 mb 0.00 in0.0 mm 0.00 in0.0 mm 0.00 in0.0 mm
05:50 AM 15.3°F-9.3°C 6.3°F-14.3°C 67% 16.0 mph NW25.7 kmh NW -- 29.98 in1015.2 mb 0.00 in0.0 mm 0.00 in0.0 mm 0.00 in0.0 mm
05:55 AM 14.7°F-9.6°C 5.4°F-14.8°C 66% 9.0 mph W14.5 kmh W -- 29.99 in1015.6 mb 0.00 in0.0 mm 0.00 in0.0 mm 0.00 in0.0 mm
06:00 AM 14.0°F-10.0°C 3.8°F-15.7°C 63% 18.0 mph W29.0 kmh W -- 30.00 in1015.9 mb 0.00 in0.0 mm 0.00 in0.0 mm 0.00 in0.0 mm
06:05 AM 13.2°F-10.4°C 1.6°F-16.9°C 59% 17.0 mph W27.4 kmh W -- 30.00 in1015.9 mb 0.00 in0.0 mm 0.00 in0.0 mm 0.00 in0.0 mm
06:10 AM 13.0°F-10.6°C 2.5°F-16.4°C 62% 13.0 mph NW20.9 kmh NW -- 30.00 in1015.9 mb 0.00 in0.0 mm 0.00 in0.0 mm 0.00 in0.0 mm
06:15 AM 12.6°F-10.8°C 2.8°F-16.2°C 64% 13.0 mph NNW20.9 kmh NNW -- 30.01 in1016.3 mb 0.00 in0.0 mm 0.00 in0.0 mm 0.00 in0.0 mm
06:20 AM 11.5°F-11.4°C 1.7°F-16.8°C 64% 13.0 mph NW20.9 kmh NW -- 30.01 in1016.3 mb 0.00 in0.0 mm 0.00 in0.0 mm 0.00 in0.0 mm
06:25 AM 10.3°F-12.1°C -0.8°F-18.2°C 60% 27.0 mph NW43.5 kmh NW -- 30.02 in1016.6 mb 0.00 in0.0 mm 0.00 in0.0 mm 0.00 in0.0 mm
06:30 AM 9.7°F-12.4°C -1.7°F-18.7°C 59% 19.0 mph NW30.6 kmh NW 32.0 mph51.5 kmh 30.02 in1016.6 mb 0.00 in0.0 mm 0.00 in0.0 mm 0.00 in0.0 mm
06:35 AM 9.0°F-12.8°C -3.1°F-19.5°C 57% 9.0 mph WNW14.5 kmh WNW 32.0 mph51.5 kmh 30.03 in1016.9 mb 0.00 in0.0 mm 0.00 in0.0 mm 0.00 in0.0 mm
06:40 AM 8.5°F-13.1°C -3.6°F-19.8°C 57% 11.0 mph NW17.7 kmh NW -- 30.04 in1017.3 mb 0.00 in0.0 mm 0.00 in0.0 mm 0.00 in0.0 mm
06:45 AM 8.2°F-13.2°C -3.5°F-19.7°C 58% 18.0 mph NW29.0 kmh NW -- 30.04 in1017.3 mb 0.00 in0.0 mm 0.00 in0.0 mm 0.00 in0.0 mm
06:50 AM 8.0°F-13.3°C -3.7°F-19.8°C 58% 13.0 mph WNW20.9 kmh WNW -- 30.05 in1017.6 mb 0.00 in0.0 mm 0.00 in0.0 mm 0.00 in0.0 mm
06:55 AM 7.6°F-13.6°C -4.1°F-20.1°C 58% 11.0 mph NW17.7 kmh NW -- 30.05 in1017.6 mb 0.00 in0.0 mm 0.00 in0.0 mm 0.00 in0.0 mm
07:00 AM 7.2°F-13.8°C -4.1°F-20.1°C 59% 16.0 mph WNW25.7 kmh WNW -- 30.06 in1017.9 mb 0.00 in0.0 mm 0.00 in0.0 mm 0.00 in0.0 mm
07:05 AM 6.7°F-14.1°C -5.3°F-20.7°C 57% 20.0 mph WNW32.2 kmh WNW -- 30.06 in1017.9 mb 0.00 in0.0 mm 0.00 in0.0 mm 0.00 in0.0 mm
07:10 AM 6.2°F-14.3°C -6.1°F-21.2°C 56% 17.0 mph NW27.4 kmh NW -- 30.07 in1018.3 mb 0.00 in0.0 mm 0.00 in0.0 mm 0.00 in0.0 mm
07:15 AM 5.9°F-14.5°C -6.4°F-21.3°C 56% 13.0 mph WNW20.9 kmh WNW -- 30.07 in1018.3 mb 0.00 in0.0 mm 0.00 in0.0 mm 0.00 in0.0 mm
07:20 AM 5.7°F-14.6°C -6.6°F-21.4°C 56% 14.0 mph W22.5 kmh W 27.0 mph43.5 kmh 30.08 in1018.6 mb 0.00 in0.0 mm 0.00 in0.0 mm 0.00 in0.0 mm
07:25 AM 5.4°F-14.8°C -6.5°F-21.4°C 57% 13.0 mph NW20.9 kmh NW 27.0 mph43.5 kmh 30.08 in1018.6 mb 0.00 in0.0 mm 0.00 in0.0 mm 0.00 in0.0 mm
07:30 AM 5.3°F-14.8°C -6.6°F-21.4°C 57% 11.0 mph NW17.7 kmh NW -- 30.09 in1019.0 mb 0.00 in0.0 mm 0.00 in0.0 mm 0.00 in0.0 mm
07:35 AM 5.1°F-14.9°C -6.8°F-21.6°C 57% 15.0 mph NW24.1 kmh NW -- 30.09 in1019.0 mb 0.00 in0.0 mm 0.00 in0.0 mm 0.00 in0.0 mm
07:40 AM 4.9°F-15.1°C -4.6°F-20.3°C 64% 14.0 mph NW22.5 kmh NW -- 30.10 in1019.3 mb 0.00 in0.0 mm 0.00 in0.0 mm 0.00 in0.0 mm
07:45 AM 4.6°F-15.2°C -7.2°F-21.8°C 57% 14.0 mph NW22.5 kmh NW -- 30.10 in1019.3 mb 0.00 in0.0 mm 0.00 in0.0 mm 0.00 in0.0 mm
07:50 AM 4.5°F-15.3°C -7.3°F-21.8°C 57% 10.0 mph NW16.1 kmh NW -- 30.11 in1019.6 mb 0.00 in0.0 mm 0.00 in0.0 mm 0.00 in0.0 mm
07:55 AM 4.5°F-15.3°C -7.0°F-21.7°C 58% 13.0 mph NW20.9 kmh NW -- 30.11 in1019.6 mb 0.00 in0.0 mm 0.00 in0.0 mm 0.00 in0.0 mm
08:00 AM 4.2°F-15.4°C -7.6°F-22.0°C 57% 14.0 mph NW22.5 kmh NW -- 30.12 in1020.0 mb 0.00 in0.0 mm 0.00 in0.0 mm 0.00 in0.0 mm
08:05 AM 4.1°F-15.5°C -7.7°F-22.1°C 57% 11.0 mph NW17.7 kmh NW -- 30.13 in1020.3 mb 0.00 in0.0 mm 0.00 in0.0 mm 0.00 in0.0 mm
08:10 AM 4.0°F-15.6°C -7.8°F-22.1°C 57% 17.0 mph NW27.4 kmh NW 26.0 mph41.8 kmh 30.13 in1020.3 mb 0.00 in0.0 mm 0.00 in0.0 mm 0.00 in0.0 mm
08:15 AM 3.9°F-15.6°C -7.5°F-21.9°C 58% 12.0 mph WNW19.3 kmh WNW 26.0 mph41.8 kmh 30.14 in1020.7 mb 0.00 in0.0 mm 0.00 in0.0 mm 0.00 in0.0 mm
08:20 AM 3.7°F-15.7°C -7.7°F-22.1°C 58% 10.0 mph WNW16.1 kmh WNW -- 30.14 in1020.7 mb 0.00 in0.0 mm 0.00 in0.0 mm 0.00 in0.0 mm
08:25 AM 3.6°F-15.8°C -7.5°F-21.9°C 59% 10.0 mph NW16.1 kmh NW -- 30.15 in1021.0 mb 0.00 in0.0 mm 0.00 in0.0 mm 0.00 in0.0 mm
08:30 AM 3.6°F-15.8°C -7.5°F-21.9°C 59% 7.0 mph W11.3 kmh W -- 30.15 in1021.0 mb 0.00 in0.0 mm 0.00 in0.0 mm 0.00 in0.0 mm
08:35 AM 3.5°F-15.8°C -7.6°F-22.0°C 59% 15.0 mph NW24.1 kmh NW -- 30.16 in1021.3 mb 0.00 in0.0 mm 0.00 in0.0 mm 0.00 in0.0 mm
08:40 AM 3.4°F-15.9°C -8.0°F-22.2°C 58% 15.0 mph NW24.1 kmh NW -- 30.16 in1021.3 mb 0.00 in0.0 mm 0.00 in0.0 mm 0.00 in0.0 mm
08:45 AM 3.0°F-16.1°C -9.5°F-23.1°C 55% 8.0 mph NW12.9 kmh NW -- 30.17 in1021.7 mb 0.00 in0.0 mm 0.00 in0.0 mm 0.00 in0.0 mm
08:50 AM 2.8°F-16.2°C -9.3°F-22.9°C 56% 18.0 mph NW29.0 kmh NW -- 30.17 in1021.7 mb 0.00 in0.0 mm 0.00 in0.0 mm 0.00 in0.0 mm
08:55 AM 2.6°F-16.3°C -9.5°F-23.1°C 56% 9.0 mph WNW14.5 kmh WNW -- 30.17 in1021.7 mb 0.00 in0.0 mm 0.00 in0.0 mm 0.00 in0.0 mm
09:00 AM 2.6°F-16.3°C -9.1°F-22.8°C 57% 14.0 mph NW22.5 kmh NW 22.0 mph35.4 kmh 30.18 in1022.0 mb 0.00 in0.0 mm 0.00 in0.0 mm 0.00 in0.0 mm
09:05 AM 2.5°F-16.4°C -8.9°F-22.7°C 58% 10.0 mph NW16.1 kmh NW 22.0 mph35.4 kmh 30.18 in1022.0 mb 0.00 in0.0 mm 0.00 in0.0 mm 0.00 in0.0 mm
09:10 AM 2.5°F-16.4°C -8.9°F-22.7°C 58% 9.0 mph NNW14.5 kmh NNW -- 30.19 in1022.4 mb 0.00 in0.0 mm 0.00 in0.0 mm 0.00 in0.0 mm
09:15 AM 2.4°F-16.4°C -9.0°F-22.8°C 58% 13.0 mph NW20.9 kmh NW -- 30.19 in1022.4 mb 0.00 in0.0 mm 0.00 in0.0 mm 0.00 in0.0 mm
09:20 AM 2.3°F-16.5°C -9.1°F-22.8°C 58% 18.0 mph NW29.0 kmh NW -- 30.20 in1022.7 mb 0.00 in0.0 mm 0.00 in0.0 mm 0.00 in0.0 mm
09:25 AM 2.3°F-16.5°C -9.1°F-22.8°C 58% 13.0 mph W20.9 kmh W -- 30.20 in1022.7 mb 0.00 in0.0 mm 0.00 in0.0 mm 0.00 in0.0 mm
09:30 AM 2.3°F-16.5°C -8.7°F-22.6°C 59% 10.0 mph NW16.1 kmh NW -- 30.20 in1022.7 mb 0.00 in0.0 mm 0.00 in0.0 mm 0.00 in0.0 mm
09:35 AM 2.4°F-16.4°C -8.6°F-22.6°C 59% 10.0 mph NW16.1 kmh NW -- 30.21 in1023.0 mb 0.00 in0.0 mm 0.00 in0.0 mm 0.00 in0.0 mm
09:40 AM 2.3°F-16.5°C -8.7°F-22.6°C 59% 18.0 mph NW29.0 kmh NW -- 30.21 in1023.0 mb 0.00 in0.0 mm 0.00 in0.0 mm 0.00 in0.0 mm
09:45 AM 2.4°F-16.4°C -8.6°F-22.6°C 59% 7.0 mph NW11.3 kmh NW -- 30.21 in1023.0 mb 0.00 in0.0 mm 0.00 in0.0 mm 0.00 in0.0 mm
09:50 AM 2.4°F-16.4°C -8.3°F-22.4°C 60% 8.0 mph NW12.9 kmh NW 25.0 mph40.2 kmh 30.21 in1023.0 mb 0.00 in0.0 mm 0.00 in0.0 mm 0.00 in0.0 mm
09:55 AM 2.3°F-16.5°C -8.4°F-22.4°C 60% 13.0 mph NW20.9 kmh NW 25.0 mph40.2 kmh 30.22 in1023.4 mb 0.00 in0.0 mm 0.00 in0.0 mm 0.00 in0.0 mm
10:00 AM 2.1°F-16.6°C -8.6°F-22.6°C 60% 11.0 mph NNW17.7 kmh NNW -- 30.22 in1023.4 mb 0.00 in0.0 mm 0.00 in0.0 mm 0.00 in0.0 mm
10:05 AM 2.0°F-16.7°C -8.7°F-22.6°C 60% 11.0 mph NW17.7 kmh NW -- 30.22 in1023.4 mb 0.00 in0.0 mm 0.00 in0.0 mm 0.00 in0.0 mm
10:10 AM 2.3°F-16.5°C -8.4°F-22.4°C 60% 11.0 mph WNW17.7 kmh WNW -- 30.23 in1023.7 mb 0.00 in0.0 mm 0.00 in0.0 mm 0.00 in0.0 mm
10:15 AM 2.4°F-16.4°C -8.6°F-22.6°C 59% 8.0 mph WNW12.9 kmh WNW -- 30.23 in1023.7 mb 0.00 in0.0 mm 0.00 in0.0 mm 0.00 in0.0 mm
10:20 AM 2.0°F-16.7°C -9.3°F-22.9°C 58% 16.0 mph NW25.7 kmh NW -- 30.23 in1023.7 mb 0.00 in0.0 mm 0.00 in0.0 mm 0.00 in0.0 mm
10:25 AM 2.1°F-16.6°C -9.2°F-22.9°C 58% 11.0 mph NW17.7 kmh NW -- 30.24 in1024.0 mb 0.00 in0.0 mm 0.00 in0.0 mm 0.00 in0.0 mm
10:30 AM 1.9°F-16.7°C -9.8°F-23.2°C 57% 16.0 mph NW25.7 kmh NW -- 30.24 in1024.0 mb 0.00 in0.0 mm 0.00 in0.0 mm 0.00 in0.0 mm
10:35 AM 2.3°F-16.5°C -9.1°F-22.8°C 58% 11.0 mph WNW17.7 kmh WNW -- 30.24 in1024.0 mb 0.00 in0.0 mm 0.00 in0.0 mm 0.00 in0.0 mm
10:40 AM 2.3°F-16.5°C -9.4°F-23.0°C 57% 14.0 mph NW22.5 kmh NW 25.0 mph40.2 kmh 30.24 in1024.0 mb 0.00 in0.0 mm 0.00 in0.0 mm 0.00 in0.0 mm
10:45 AM 2.3°F-16.5°C -9.4°F-23.0°C 57% 9.0 mph WNW14.5 kmh WNW 25.0 mph40.2 kmh 30.25 in1024.4 mb 0.00 in0.0 mm 0.00 in0.0 mm 0.00 in0.0 mm
10:50 AM 2.7°F-16.3°C -9.0°F-22.8°C 57% 11.0 mph WNW17.7 kmh WNW -- 30.25 in1024.4 mb 0.00 in0.0 mm 0.00 in0.0 mm 0.00 in0.0 mm
10:55 AM 2.5°F-16.4°C -9.6°F-23.1°C 56% 12.0 mph NNW19.3 kmh NNW -- 30.25 in1024.4 mb 0.00 in0.0 mm 0.00 in0.0 mm 0.00 in0.0 mm
11:00 AM 2.8°F-16.2°C -9.3°F-22.9°C 56% 15.0 mph WNW24.1 kmh WNW -- 30.26 in1024.7 mb 0.00 in0.0 mm 0.00 in0.0 mm 0.00 in0.0 mm
11:05 AM 2.5°F-16.4°C -9.6°F-23.1°C 56% 12.0 mph NW19.3 kmh NW -- 30.26 in1024.7 mb 0.00 in0.0 mm 0.00 in0.0 mm 0.00 in0.0 mm
11:10 AM 2.2°F-16.6°C -10.2°F-23.4°C 55% 11.0 mph WSW17.7 kmh WSW -- 30.26 in1024.7 mb 0.00 in0.0 mm 0.00 in0.0 mm 0.00 in0.0 mm
11:15 AM 2.3°F-16.5°C -9.8°F-23.2°C 56% 16.0 mph WNW25.7 kmh WNW -- 30.27 in1025.1 mb 0.00 in0.0 mm 0.00 in0.0 mm 0.00 in0.0 mm
11:20 AM 2.6°F-16.3°C -9.1°F-22.8°C 57% 13.0 mph WSW20.9 kmh WSW -- 30.27 in1025.1 mb 0.00 in0.0 mm 0.00 in0.0 mm 0.00 in0.0 mm
11:25 AM 2.9°F-16.2°C -9.2°F-22.9°C 56% 16.0 mph WNW25.7 kmh WNW -- 30.27 in1025.1 mb 0.00 in0.0 mm 0.00 in0.0 mm 0.00 in0.0 mm
11:30 AM 2.8°F-16.2°C -9.7°F-23.2°C 55% 13.0 mph NW20.9 kmh NW 22.0 mph35.4 kmh 30.27 in1025.1 mb 0.00 in0.0 mm 0.00 in0.0 mm 0.00 in0.0 mm
11:35 AM 2.7°F-16.3°C -9.8°F-23.2°C 55% 9.0 mph NNW14.5 kmh NNW 22.0 mph35.4 kmh 30.27 in1025.1 mb 0.00 in0.0 mm 0.00 in0.0 mm 0.00 in0.0 mm
11:40 AM 2.8°F-16.2°C -9.7°F-23.2°C 55% 17.0 mph NW27.4 kmh NW -- 30.27 in1025.1 mb 0.00 in0.0 mm 0.00 in0.0 mm 0.00 in0.0 mm
11:45 AM 3.2°F-16.0°C -9.3°F-22.9°C 55% 12.0 mph NNW19.3 kmh NNW -- 30.28 in1025.4 mb 0.00 in0.0 mm 0.00 in0.0 mm 0.00 in0.0 mm
11:50 AM 3.3°F-15.9°C -9.2°F-22.9°C 55% 17.0 mph NW27.4 kmh NW -- 30.28 in1025.4 mb 0.00 in0.0 mm 0.00 in0.0 mm 0.00 in0.0 mm
11:55 AM 3.2°F-16.0°C -9.7°F-23.2°C 54% 12.0 mph NNW19.3 kmh NNW -- 30.28 in1025.4 mb 0.00 in0.0 mm 0.00 in0.0 mm 0.00 in0.0 mm
12:00 PM 3.2°F-16.0°C -10.0°F-23.3°C 53% 10.0 mph NW16.1 kmh NW -- 30.28 in1025.4 mb 0.00 in0.0 mm 0.00 in0.0 mm 0.00 in0.0 mm
12:05 PM 3.2°F-16.0°C -9.7°F-23.2°C 54% 7.0 mph W11.3 kmh W -- 30.28 in1025.4 mb 0.00 in0.0 mm 0.00 in0.0 mm 0.00 in0.0 mm
12:10 PM 3.3°F-15.9°C -9.6°F-23.1°C 54% 10.0 mph NW16.1 kmh NW -- 30.28 in1025.4 mb 0.00 in0.0 mm 0.00 in0.0 mm 0.00 in0.0 mm
12:15 PM 3.7°F-15.7°C -8.8°F-22.7°C 55% 20.0 mph NW32.2 kmh NW -- 30.28 in1025.4 mb 0.00 in0.0 mm 0.00 in0.0 mm 0.00 in0.0 mm
12:20 PM 3.8°F-15.7°C -9.1°F-22.8°C 54% 13.0 mph WNW20.9 kmh WNW 24.0 mph38.6 kmh 30.28 in1025.4 mb 0.00 in0.0 mm 0.00 in0.0 mm 0.00 in0.0 mm
12:25 PM 4.0°F-15.6°C -8.9°F-22.7°C 54% 15.0 mph WNW24.1 kmh WNW 24.0 mph38.6 kmh 30.28 in1025.4 mb 0.00 in0.0 mm 0.00 in0.0 mm 0.00 in0.0 mm
12:30 PM 3.8°F-15.7°C -9.5°F-23.1°C 53% 10.0 mph W16.1 kmh W -- 30.28 in1025.4 mb 0.00 in0.0 mm 0.00 in0.0 mm 0.00 in0.0 mm
12:35 PM 4.0°F-15.6°C -9.3°F-22.9°C 53% 7.0 mph WNW11.3 kmh WNW -- 30.28 in1025.4 mb 0.00 in0.0 mm 0.00 in0.0 mm 0.00 in0.0 mm
12:40 PM 4.1°F-15.5°C -8.8°F-22.7°C 54% 11.0 mph NW17.7 kmh NW -- 30.29 in1025.7 mb 0.00 in0.0 mm 0.00 in0.0 mm 0.00 in0.0 mm
12:45 PM 4.1°F-15.5°C -8.8°F-22.7°C 54% 11.0 mph NW17.7 kmh NW -- 30.28 in1025.4 mb 0.00 in0.0 mm 0.00 in0.0 mm 0.00 in0.0 mm
12:50 PM 4.5°F-15.3°C -8.4°F-22.4°C 54% 12.0 mph NW19.3 kmh NW -- 30.28 in1025.4 mb 0.00 in0.0 mm 0.00 in0.0 mm 0.00 in0.0 mm
12:55 PM 4.5°F-15.3°C -8.4°F-22.4°C 54% 13.0 mph WNW20.9 kmh WNW -- 30.28 in1025.4 mb 0.00 in0.0 mm 0.00 in0.0 mm 0.00 in0.0 mm
01:00 PM 4.4°F-15.3°C -8.9°F-22.7°C 53% 8.0 mph W12.9 kmh W -- 30.28 in1025.4 mb 0.00 in0.0 mm 0.00 in0.0 mm 0.00 in0.0 mm
01:05 PM 4.5°F-15.3°C -8.8°F-22.7°C 53% 10.0 mph WNW16.1 kmh WNW -- 30.28 in1025.4 mb 0.00 in0.0 mm 0.00 in0.0 mm 0.00 in0.0 mm
01:10 PM 4.5°F-15.3°C -9.2°F-22.9°C 52% 9.0 mph NW14.5 kmh NW 22.0 mph35.4 kmh 30.28 in1025.4 mb 0.00 in0.0 mm 0.00 in0.0 mm 0.00 in0.0 mm
01:15 PM 4.7°F-15.2°C -9.0°F-22.8°C 52% 19.0 mph WNW30.6 kmh WNW 22.0 mph35.4 kmh 30.28 in1025.4 mb 0.00 in0.0 mm 0.00 in0.0 mm 0.00 in0.0 mm
01:20 PM 4.9°F-15.1°C -8.4°F-22.4°C 53% 10.0 mph WNW16.1 kmh WNW -- 30.28 in1025.4 mb 0.00 in0.0 mm 0.00 in0.0 mm 0.00 in0.0 mm
01:25 PM 5.1°F-14.9°C -8.6°F-22.6°C 52% 9.0 mph NW14.5 kmh NW -- 30.28 in1025.4 mb 0.00 in0.0 mm 0.00 in0.0 mm 0.00 in0.0 mm
01:30 PM 5.0°F-15.0°C -9.1°F-22.8°C 51% 7.0 mph NW11.3 kmh NW -- 30.28 in1025.4 mb 0.00 in0.0 mm 0.00 in0.0 mm 0.00 in0.0 mm
01:35 PM 5.4°F-14.8°C -8.0°F-22.2°C 53% 14.0 mph NW22.5 kmh NW -- 30.28 in1025.4 mb 0.00 in0.0 mm 0.00 in0.0 mm 0.00 in0.0 mm
01:40 PM 5.0°F-15.0°C -9.1°F-22.8°C 51% 14.0 mph WNW22.5 kmh WNW -- 30.28 in1025.4 mb 0.00 in0.0 mm 0.00 in0.0 mm 0.00 in0.0 mm
01:45 PM 5.0°F-15.0°C -9.1°F-22.8°C 51% 14.0 mph NW22.5 kmh NW -- 30.28 in1025.4 mb 0.00 in0.0 mm 0.00 in0.0 mm 0.00 in0.0 mm
01:50 PM 5.6°F-14.7°C -8.2°F-22.3°C 52% 11.0 mph NW17.7 kmh NW -- 30.28 in1025.4 mb 0.00 in0.0 mm 0.00 in0.0 mm 0.00 in0.0 mm
01:55 PM 6.1°F-14.4°C -7.7°F-22.1°C 52% 11.0 mph NW17.7 kmh NW -- 30.28 in1025.4 mb 0.00 in0.0 mm 0.00 in0.0 mm 0.00 in0.0 mm
02:00 PM 6.3°F-14.3°C -7.5°F-21.9°C 52% 9.0 mph NW14.5 kmh NW 19.0 mph30.6 kmh 30.28 in1025.4 mb 0.00 in0.0 mm 0.00 in0.0 mm 0.00 in0.0 mm
02:05 PM 6.0°F-14.4°C -8.6°F-22.6°C 50% 10.0 mph NW16.1 kmh NW 19.0 mph30.6 kmh 30.28 in1025.4 mb 0.00 in0.0 mm 0.00 in0.0 mm 0.00 in0.0 mm
02:10 PM 6.3°F-14.3°C -7.9°F-22.2°C 51% 10.0 mph WNW16.1 kmh WNW -- 30.29 in1025.7 mb 0.00 in0.0 mm 0.00 in0.0 mm 0.00 in0.0 mm
02:15 PM 6.4°F-14.2°C -8.2°F-22.3°C 50% 6.0 mph WNW9.7 kmh WNW -- 30.29 in1025.7 mb 0.00 in0.0 mm 0.00 in0.0 mm 0.00 in0.0 mm
02:20 PM 6.1°F-14.4°C -8.5°F-22.5°C 50% 12.0 mph W19.3 kmh W -- 30.29 in1025.7 mb 0.00 in0.0 mm 0.00 in0.0 mm 0.00 in0.0 mm
02:25 PM 6.3°F-14.3°C -8.3°F-22.4°C 50% 19.0 mph NW30.6 kmh NW -- 30.29 in1025.7 mb 0.00 in0.0 mm 0.00 in0.0 mm 0.00 in0.0 mm
02:30 PM 6.3°F-14.3°C -8.3°F-22.4°C 50% 7.0 mph WNW11.3 kmh WNW -- 30.29 in1025.7 mb 0.00 in0.0 mm 0.00 in0.0 mm 0.00 in0.0 mm
02:35 PM 6.5°F-14.2°C -8.1°F-22.3°C 50% 9.0 mph WNW14.5 kmh WNW -- 30.29 in1025.7 mb 0.00 in0.0 mm 0.00 in0.0 mm 0.00 in0.0 mm
02:40 PM 6.7°F-14.1°C -7.9°F-22.2°C 50% 13.0 mph WNW20.9 kmh WNW -- 30.29 in1025.7 mb 0.00 in0.0 mm 0.00 in0.0 mm 0.00 in0.0 mm
02:45 PM 6.6°F-14.1°C -8.0°F-22.2°C 50% 8.0 mph NW12.9 kmh NW -- 30.29 in1025.7 mb 0.00 in0.0 mm 0.00 in0.0 mm 0.00 in0.0 mm
02:50 PM 6.9°F-13.9°C -7.8°F-22.1°C 50% 20.0 mph WNW32.2 kmh WNW 22.0 mph35.4 kmh 30.29 in1025.7 mb 0.00 in0.0 mm 0.00 in0.0 mm 0.00 in0.0 mm
02:55 PM 7.1°F-13.8°C -8.0°F-22.2°C 49% 12.0 mph NW19.3 kmh NW 22.0 mph35.4 kmh 30.29 in1025.7 mb 0.00 in0.0 mm 0.00 in0.0 mm 0.00 in0.0 mm
03:00 PM 7.1°F-13.8°C -7.6°F-22.0°C 50% 10.0 mph W16.1 kmh W -- 30.29 in1025.7 mb 0.00 in0.0 mm 0.00 in0.0 mm 0.00 in0.0 mm
03:05 PM 7.3°F-13.7°C -7.4°F-21.9°C 50% 9.0 mph NW14.5 kmh NW -- 30.30 in1026.1 mb 0.00 in0.0 mm 0.00 in0.0 mm 0.00 in0.0 mm
03:10 PM 7.3°F-13.7°C -7.4°F-21.9°C 50% 8.0 mph WSW12.9 kmh WSW -- 30.30 in1026.1 mb 0.00 in0.0 mm 0.00 in0.0 mm 0.00 in0.0 mm
03:15 PM 7.7°F-13.5°C -7.0°F-21.7°C 50% 14.0 mph NW22.5 kmh NW -- 30.30 in1026.1 mb 0.00 in0.0 mm 0.00 in0.0 mm 0.00 in0.0 mm
03:20 PM 7.6°F-13.6°C -7.5°F-21.9°C 49% 9.0 mph NW14.5 kmh NW -- 30.30 in1026.1 mb 0.00 in0.0 mm 0.00 in0.0 mm 0.00 in0.0 mm
03:25 PM 7.8°F-13.4°C -7.3°F-21.8°C 49% 8.0 mph N12.9 kmh N -- 30.30 in1026.1 mb 0.00 in0.0 mm 0.00 in0.0 mm 0.00 in0.0 mm
03:30 PM 8.2°F-13.2°C -6.6°F-21.4°C 50% 12.0 mph WNW19.3 kmh WNW -- 30.30 in1026.1 mb 0.00 in0.0 mm 0.00 in0.0 mm 0.00 in0.0 mm
03:35 PM 8.2°F-13.2°C -6.6°F-21.4°C 50% 9.0 mph NW14.5 kmh NW -- 30.31 in1026.4 mb 0.00 in0.0 mm 0.00 in0.0 mm 0.00 in0.0 mm
03:40 PM 8.3°F-13.2°C -6.5°F-21.4°C 50% 9.0 mph NW14.5 kmh NW 17.0 mph27.4 kmh 30.31 in1026.4 mb 0.00 in0.0 mm 0.00 in0.0 mm 0.00 in0.0 mm
03:45 PM 8.1°F-13.3°C -7.1°F-21.7°C 49% 13.0 mph W20.9 kmh W 17.0 mph27.4 kmh 30.31 in1026.4 mb 0.00 in0.0 mm 0.00 in0.0 mm 0.00 in0.0 mm
03:50 PM 8.0°F-13.3°C -7.2°F-21.8°C 49% 14.0 mph W22.5 kmh W -- 30.31 in1026.4 mb 0.00 in0.0 mm 0.00 in0.0 mm 0.00 in0.0 mm
03:55 PM 8.1°F-13.3°C -6.6°F-21.4°C 50% 8.0 mph NW12.9 kmh NW -- 30.32 in1026.8 mb 0.00 in0.0 mm 0.00 in0.0 mm 0.00 in0.0 mm
04:00 PM 8.8°F-12.9°C -6.0°F-21.1°C 50% 8.0 mph NW12.9 kmh NW -- 30.32 in1026.8 mb 0.00 in0.0 mm 0.00 in0.0 mm 0.00 in0.0 mm
04:05 PM 8.7°F-12.9°C -6.9°F-21.6°C 48% 13.0 mph NNW20.9 kmh NNW -- 30.32 in1026.8 mb 0.00 in0.0 mm 0.00 in0.0 mm 0.00 in0.0 mm
04:10 PM 8.7°F-12.9°C -6.5°F-21.4°C 49% 14.0 mph NW22.5 kmh NW -- 30.32 in1026.8 mb 0.00 in0.0 mm 0.00 in0.0 mm 0.00 in0.0 mm
04:15 PM 8.5°F-13.1°C -6.7°F-21.5°C 49% 8.0 mph NW12.9 kmh NW -- 30.33 in1027.1 mb 0.00 in0.0 mm 0.00 in0.0 mm 0.00 in0.0 mm
04:20 PM 8.7°F-12.9°C -6.5°F-21.4°C 49% 5.0 mph W8.0 kmh W -- 30.33 in1027.1 mb 0.00 in0.0 mm 0.00 in0.0 mm 0.00 in0.0 mm
04:25 PM 8.5°F-13.1°C -6.7°F-21.5°C 49% 12.0 mph W19.3 kmh W -- 30.33 in1027.1 mb 0.00 in0.0 mm 0.00 in0.0 mm 0.00 in0.0 mm
04:30 PM 8.6°F-13.0°C -6.2°F-21.2°C 50% 11.0 mph WNW17.7 kmh WNW 17.0 mph27.4 kmh 30.34 in1027.4 mb 0.00 in0.0 mm 0.00 in0.0 mm 0.00 in0.0 mm
04:35 PM 8.3°F-13.2°C -6.9°F-21.6°C 49% 9.0 mph WSW14.5 kmh WSW 17.0 mph27.4 kmh 30.34 in1027.4 mb 0.00 in0.0 mm 0.00 in0.0 mm 0.00 in0.0 mm
04:40 PM 8.2°F-13.2°C -6.6°F-21.4°C 50% 13.0 mph NW20.9 kmh NW -- 30.34 in1027.4 mb 0.00 in0.0 mm 0.00 in0.0 mm 0.00 in0.0 mm
04:45 PM 8.4°F-13.1°C -6.8°F-21.6°C 49% 10.0 mph NW16.1 kmh NW -- 30.34 in1027.4 mb 0.00 in0.0 mm 0.00 in0.0 mm 0.00 in0.0 mm
04:50 PM 8.5°F-13.1°C -6.7°F-21.5°C 49% 8.0 mph WNW12.9 kmh WNW -- 30.35 in1027.8 mb 0.00 in0.0 mm 0.00 in0.0 mm 0.00 in0.0 mm
04:55 PM 8.3°F-13.2°C -6.5°F-21.4°C 50% 11.0 mph W17.7 kmh W -- 30.35 in1027.8 mb 0.00 in0.0 mm 0.00 in0.0 mm 0.00 in0.0 mm
05:00 PM 8.3°F-13.2°C -6.5°F-21.4°C 50% 13.0 mph NW20.9 kmh NW -- 30.36 in1028.1 mb 0.00 in0.0 mm 0.00 in0.0 mm 0.00 in0.0 mm
05:05 PM 8.4°F-13.1°C -6.4°F-21.3°C 50% 13.0 mph WNW20.9 kmh WNW -- 30.36 in1028.1 mb 0.00 in0.0 mm 0.00 in0.0 mm 0.00 in0.0 mm
05:10 PM 8.2°F-13.2°C -7.0°F-21.7°C 49% 13.0 mph NW20.9 kmh NW -- 30.36 in1028.1 mb 0.00 in0.0 mm 0.00 in0.0 mm 0.00 in0.0 mm
05:15 PM 8.3°F-13.2°C -6.5°F-21.4°C 50% 6.0 mph NW9.7 kmh NW -- 30.36 in1028.1 mb 0.00 in0.0 mm 0.00 in0.0 mm 0.00 in0.0 mm
05:20 PM 8.5°F-13.1°C -6.3°F-21.3°C 50% 9.0 mph NW14.5 kmh NW 17.0 mph27.4 kmh 30.36 in1028.1 mb 0.00 in0.0 mm 0.00 in0.0 mm 0.00 in0.0 mm
05:25 PM 8.3°F-13.2°C -6.5°F-21.4°C 50% 12.0 mph NW19.3 kmh NW 17.0 mph27.4 kmh 30.37 in1028.4 mb 0.00 in0.0 mm 0.00 in0.0 mm 0.00 in0.0 mm
05:30 PM 8.1°F-13.3°C -6.6°F-21.4°C 50% 7.0 mph W11.3 kmh W -- 30.37 in1028.4 mb 0.00 in0.0 mm 0.00 in0.0 mm 0.00 in0.0 mm
05:35 PM 8.0°F-13.3°C -6.7°F-21.5°C 50% 7.0 mph NW11.3 kmh NW -- 30.37 in1028.4 mb 0.00 in0.0 mm 0.00 in0.0 mm 0.00 in0.0 mm
05:40 PM 7.9°F-13.4°C -6.4°F-21.3°C 51% 10.0 mph W16.1 kmh W -- 30.37 in1028.4 mb 0.00 in0.0 mm 0.00 in0.0 mm 0.00 in0.0 mm
05:45 PM 7.8°F-13.4°C -6.1°F-21.2°C 52% 8.0 mph WNW12.9 kmh WNW -- 30.38 in1028.8 mb 0.00 in0.0 mm 0.00 in0.0 mm 0.00 in0.0 mm
05:50 PM 7.9°F-13.4°C -6.0°F-21.1°C 52% 9.0 mph NW14.5 kmh NW -- 30.38 in1028.8 mb 0.00 in0.0 mm 0.00 in0.0 mm 0.00 in0.0 mm
05:55 PM 7.8°F-13.4°C -6.1°F-21.2°C 52% 11.0 mph NW17.7 kmh NW -- 30.39 in1029.1 mb 0.00 in0.0 mm 0.00 in0.0 mm 0.00 in0.0 mm
06:00 PM 7.6°F-13.6°C -6.3°F-21.3°C 52% 10.0 mph NW16.1 kmh NW -- 30.39 in1029.1 mb 0.00 in0.0 mm 0.00 in0.0 mm 0.00 in0.0 mm
06:05 PM 7.4°F-13.7°C -6.9°F-21.6°C 51% 10.0 mph NW16.1 kmh NW -- 30.39 in1029.1 mb 0.00 in0.0 mm 0.00 in0.0 mm 0.00 in0.0 mm
06:10 PM 7.3°F-13.7°C -6.6°F-21.4°C 52% 15.0 mph WNW24.1 kmh WNW 20.0 mph32.2 kmh 30.40 in1029.5 mb 0.00 in0.0 mm 0.00 in0.0 mm 0.00 in0.0 mm
06:15 PM 7.2°F-13.8°C -6.7°F-21.5°C 52% 10.0 mph NW16.1 kmh NW 20.0 mph32.2 kmh 30.40 in1029.5 mb 0.00 in0.0 mm 0.00 in0.0 mm 0.00 in0.0 mm
06:20 PM 7.0°F-13.9°C -6.5°F-21.4°C 53% 13.0 mph NW20.9 kmh NW -- 30.40 in1029.5 mb 0.00 in0.0 mm 0.00 in0.0 mm 0.00 in0.0 mm
06:25 PM 6.8°F-14.0°C -6.7°F-21.5°C 53% 10.0 mph NW16.1 kmh NW -- 30.41 in1029.8 mb 0.00 in0.0 mm 0.00 in0.0 mm 0.00 in0.0 mm
06:30 PM 6.7°F-14.1°C -6.8°F-21.6°C 53% 7.0 mph WSW11.3 kmh WSW -- 30.41 in1029.8 mb 0.00 in0.0 mm 0.00 in0.0 mm 0.00 in0.0 mm
06:35 PM 6.6°F-14.1°C -6.9°F-21.6°C 53% 7.0 mph NW11.3 kmh NW -- 30.41 in1029.8 mb 0.00 in0.0 mm 0.00 in0.0 mm 0.00 in0.0 mm
06:40 PM 6.5°F-14.2°C -6.9°F-21.6°C 53% 9.0 mph WNW14.5 kmh WNW -- 30.41 in1029.8 mb 0.00 in0.0 mm 0.00 in0.0 mm 0.00 in0.0 mm
06:45 PM 6.5°F-14.2°C -6.9°F-21.6°C 53% 8.0 mph W12.9 kmh W -- 30.42 in1030.1 mb 0.00 in0.0 mm 0.00 in0.0 mm 0.00 in0.0 mm
06:50 PM 6.4°F-14.2°C -6.7°F-21.5°C 54% 13.0 mph NW20.9 kmh NW -- 30.42 in1030.1 mb 0.00 in0.0 mm 0.00 in0.0 mm 0.00 in0.0 mm
06:55 PM 6.3°F-14.3°C -7.1°F-21.7°C 53% 9.0 mph NW14.5 kmh NW -- 30.43 in1030.5 mb 0.00 in0.0 mm 0.00 in0.0 mm 0.00 in0.0 mm
07:00 PM 6.2°F-14.3°C -6.8°F-21.6°C 54% 10.0 mph NW16.1 kmh NW 20.0 mph32.2 kmh 30.43 in1030.5 mb 0.00 in0.0 mm 0.00 in0.0 mm 0.00 in0.0 mm
07:05 PM 6.1°F-14.4°C -6.9°F-21.6°C 54% 11.0 mph NW17.7 kmh NW 20.0 mph32.2 kmh 30.43 in1030.5 mb 0.00 in0.0 mm 0.00 in0.0 mm 0.00 in0.0 mm
07:10 PM 6.0°F-14.4°C -7.0°F-21.7°C 54% 10.0 mph WNW16.1 kmh WNW -- 30.43 in1030.5 mb 0.00 in0.0 mm 0.00 in0.0 mm 0.00 in0.0 mm
07:15 PM 5.9°F-14.5°C -7.1°F-21.7°C 54% 10.0 mph WNW16.1 kmh WNW -- 30.44 in1030.8 mb 0.00 in0.0 mm 0.00 in0.0 mm 0.00 in0.0 mm
07:20 PM 5.8°F-14.6°C -6.8°F-21.6°C 55% 9.0 mph WNW14.5 kmh WNW -- 30.44 in1030.8 mb 0.00 in0.0 mm 0.00 in0.0 mm 0.00 in0.0 mm
07:25 PM 5.7°F-14.6°C -6.9°F-21.6°C 55% 13.0 mph NW20.9 kmh NW -- 30.44 in1030.8 mb 0.00 in0.0 mm 0.00 in0.0 mm 0.00 in0.0 mm
07:30 PM 5.6°F-14.7°C -7.0°F-21.7°C 55% 14.0 mph NW22.5 kmh NW -- 30.45 in1031.2 mb 0.00 in0.0 mm 0.00 in0.0 mm 0.00 in0.0 mm
07:35 PM 5.6°F-14.7°C -6.7°F-21.5°C 56% 5.0 mph NW8.0 kmh NW -- 30.45 in1031.2 mb 0.00 in0.0 mm 0.00 in0.0 mm 0.00 in0.0 mm
07:40 PM 5.5°F-14.7°C -6.8°F-21.6°C 56% 8.0 mph NW12.9 kmh NW -- 30.45 in1031.2 mb 0.00 in0.0 mm 0.00 in0.0 mm 0.00 in0.0 mm
07:45 PM 5.4°F-14.8°C -6.8°F-21.6°C 56% 9.0 mph NW14.5 kmh NW -- 30.45 in1031.2 mb 0.00 in0.0 mm 0.00 in0.0 mm 0.00 in0.0 mm
07:50 PM 5.3°F-14.8°C -6.6°F-21.4°C 57% 12.0 mph NW19.3 kmh NW 15.0 mph24.1 kmh 30.46 in1031.5 mb 0.00 in0.0 mm 0.00 in0.0 mm 0.00 in0.0 mm
07:55 PM 5.2°F-14.9°C -7.0°F-21.7°C 56% 7.0 mph WNW11.3 kmh WNW 15.0 mph24.1 kmh 30.46 in1031.5 mb 0.00 in0.0 mm 0.00 in0.0 mm 0.00 in0.0 mm
08:00 PM 5.1°F-14.9°C -7.1°F-21.7°C 56% 5.0 mph NW8.0 kmh NW -- 30.47 in1031.8 mb 0.00 in0.0 mm 0.00 in0.0 mm 0.00 in0.0 mm
08:05 PM 5.0°F-15.0°C -6.9°F-21.6°C 57% 9.0 mph WNW14.5 kmh WNW -- 30.47 in1031.8 mb 0.00 in0.0 mm 0.00 in0.0 mm 0.00 in0.0 mm
08:10 PM 4.9°F-15.1°C -7.0°F-21.7°C 57% 13.0 mph NW20.9 kmh NW -- 30.48 in1032.2 mb 0.00 in0.0 mm 0.00 in0.0 mm 0.00 in0.0 mm
08:15 PM 4.8°F-15.1°C -7.1°F-21.7°C 57% 11.0 mph WNW17.7 kmh WNW -- 30.48 in1032.2 mb 0.00 in0.0 mm 0.00 in0.0 mm 0.00 in0.0 mm
08:20 PM 4.7°F-15.2°C -7.1°F-21.7°C 57% 5.0 mph W8.0 kmh W -- 30.48 in1032.2 mb 0.00 in0.0 mm 0.00 in0.0 mm 0.00 in0.0 mm
08:25 PM 4.6°F-15.2°C -7.2°F-21.8°C 57% 8.0 mph W12.9 kmh W -- 30.48 in1032.2 mb 0.00 in0.0 mm 0.00 in0.0 mm 0.00 in0.0 mm
08:30 PM 3.3°F-15.9°C -8.1°F-22.3°C 58% 9.0 mph NW14.5 kmh NW -- 30.48 in1032.2 mb 0.00 in0.0 mm 0.00 in0.0 mm 0.00 in0.0 mm
08:35 PM 3.3°F-15.9°C -8.5°F-22.5°C 57% 19.0 mph NW30.6 kmh NW -- 30.49 in1032.5 mb 0.00 in0.0 mm 0.00 in0.0 mm 0.00 in0.0 mm
08:40 PM 3.2°F-16.0°C -8.2°F-22.3°C 58% 18.0 mph NW29.0 kmh NW 19.0 mph30.6 kmh 30.49 in1032.5 mb 0.00 in0.0 mm 0.00 in0.0 mm 0.00 in0.0 mm
08:45 PM 3.1°F-16.1°C -8.0°F-22.2°C 59% 15.0 mph NW24.1 kmh NW 19.0 mph30.6 kmh 30.49 in1032.5 mb 0.00 in0.0 mm 0.00 in0.0 mm 0.00 in0.0 mm
08:50 PM 3.0°F-16.1°C -8.0°F-22.2°C 59% 17.0 mph WNW27.4 kmh WNW -- 30.49 in1032.5 mb 0.00 in0.0 mm 0.00 in0.0 mm 0.00 in0.0 mm
08:55 PM 4.2°F-15.4°C -7.3°F-21.8°C 58% 9.0 mph NW14.5 kmh NW -- 30.49 in1032.5 mb 0.00 in0.0 mm 0.00 in0.0 mm 0.00 in0.0 mm
09:00 PM 4.1°F-15.5°C -7.0°F-21.7°C 59% 5.0 mph W8.0 kmh W -- 30.50 in1032.8 mb 0.00 in0.0 mm 0.00 in0.0 mm 0.00 in0.0 mm
09:05 PM 4.1°F-15.5°C -7.0°F-21.7°C 59% 9.0 mph NW14.5 kmh NW -- 30.50 in1032.8 mb 0.00 in0.0 mm 0.00 in0.0 mm 0.00 in0.0 mm
09:10 PM 4.1°F-15.5°C -7.0°F-21.7°C 59% 6.0 mph W9.7 kmh W -- 30.50 in1032.8 mb 0.00 in0.0 mm 0.00 in0.0 mm 0.00 in0.0 mm
09:15 PM 4.0°F-15.6°C -6.8°F-21.6°C 60% 4.0 mph NW6.4 kmh NW -- 30.50 in1032.8 mb 0.00 in0.0 mm 0.00 in0.0 mm 0.00 in0.0 mm
09:20 PM 3.9°F-15.6°C -6.9°F-21.6°C 60% 6.0 mph NW9.7 kmh NW -- 30.50 in1032.8 mb 0.00 in0.0 mm 0.00 in0.0 mm 0.00 in0.0 mm
09:25 PM 3.8°F-15.7°C -6.9°F-21.6°C 60% 4.0 mph WNW6.4 kmh WNW -- 30.51 in1033.2 mb 0.00 in0.0 mm 0.00 in0.0 mm 0.00 in0.0 mm
09:30 PM 3.7°F-15.7°C -7.0°F-21.7°C 60% 8.0 mph NW12.9 kmh NW 15.0 mph24.1 kmh 30.51 in1033.2 mb 0.00 in0.0 mm 0.00 in0.0 mm 0.00 in0.0 mm
09:35 PM 3.7°F-15.7°C -6.7°F-21.5°C 61% 7.0 mph WNW11.3 kmh WNW 15.0 mph24.1 kmh 30.51 in1033.2 mb 0.00 in0.0 mm 0.00 in0.0 mm 0.00 in0.0 mm
09:40 PM 3.7°F-15.7°C -6.7°F-21.5°C 61% 8.0 mph NW12.9 kmh NW -- 30.51 in1033.2 mb 0.00 in0.0 mm 0.00 in0.0 mm 0.00 in0.0 mm
09:45 PM 3.6°F-15.8°C -6.8°F-21.6°C 61% 8.0 mph W12.9 kmh W -- 30.51 in1033.2 mb 0.00 in0.0 mm 0.00 in0.0 mm 0.00 in0.0 mm
09:50 PM 3.6°F-15.8°C -6.8°F-21.6°C 61% 8.0 mph W12.9 kmh W -- 30.52 in1033.5 mb 0.00 in0.0 mm 0.00 in0.0 mm 0.00 in0.0 mm
09:55 PM 3.5°F-15.8°C -6.9°F-21.6°C 61% 7.0 mph NW11.3 kmh NW -- 30.52 in1033.5 mb 0.00 in0.0 mm 0.00 in0.0 mm 0.00 in0.0 mm
10:00 PM 3.5°F-15.8°C -6.9°F-21.6°C 61% 6.0 mph WSW9.7 kmh WSW -- 30.52 in1033.5 mb 0.00 in0.0 mm 0.00 in0.0 mm 0.00 in0.0 mm
10:05 PM 3.5°F-15.8°C -6.9°F-21.6°C 61% 5.0 mph WNW8.0 kmh WNW -- 30.53 in1033.9 mb 0.00 in0.0 mm 0.00 in0.0 mm 0.00 in0.0 mm
10:10 PM 3.5°F-15.8°C -6.6°F-21.4°C 62% 5.0 mph WNW8.0 kmh WNW -- 30.53 in1033.9 mb 0.00 in0.0 mm 0.00 in0.0 mm 0.00 in0.0 mm
10:15 PM 3.3°F-15.9°C -6.7°F-21.5°C 62% 6.0 mph WNW9.7 kmh WNW -- 30.53 in1033.9 mb 0.00 in0.0 mm 0.00 in0.0 mm 0.00 in0.0 mm
10:20 PM 3.3°F-15.9°C -6.7°F-21.5°C 62% 5.0 mph W8.0 kmh W 14.0 mph22.5 kmh 30.53 in1033.9 mb 0.00 in0.0 mm 0.00 in0.0 mm 0.00 in0.0 mm
10:25 PM 3.3°F-15.9°C -6.7°F-21.5°C 62% 7.0 mph NW11.3 kmh NW 14.0 mph22.5 kmh 30.53 in1033.9 mb 0.00 in0.0 mm 0.00 in0.0 mm 0.00 in0.0 mm
10:30 PM 3.2°F-16.0°C -6.8°F-21.6°C 62% 8.0 mph W12.9 kmh W -- 30.54 in1034.2 mb 0.00 in0.0 mm 0.00 in0.0 mm 0.00 in0.0 mm
10:35 PM 3.2°F-16.0°C -6.5°F-21.4°C 63% 5.0 mph W8.0 kmh W -- 30.54 in1034.2 mb 0.00 in0.0 mm 0.00 in0.0 mm 0.00 in0.0 mm
10:40 PM 3.1°F-16.1°C -6.6°F-21.4°C 63% 6.0 mph NNW9.7 kmh NNW -- 30.54 in1034.2 mb 0.00 in0.0 mm 0.00 in0.0 mm 0.00 in0.0 mm
10:45 PM 3.0°F-16.1°C -6.4°F-21.3°C 64% 6.0 mph W9.7 kmh W -- 30.55 in1034.5 mb 0.00 in0.0 mm 0.00 in0.0 mm 0.00 in0.0 mm
10:50 PM 3.1°F-16.1°C -6.6°F-21.4°C 63% 6.0 mph NW9.7 kmh NW -- 30.55 in1034.5 mb 0.00 in0.0 mm 0.00 in0.0 mm 0.00 in0.0 mm
10:55 PM 3.0°F-16.1°C -6.4°F-21.3°C 64% 2.0 mph W3.2 kmh W -- 30.55 in1034.5 mb 0.00 in0.0 mm 0.00 in0.0 mm 0.00 in0.0 mm
11:00 PM 2.9°F-16.2°C -6.5°F-21.4°C 64% 7.0 mph WSW11.3 kmh WSW -- 30.55 in1034.5 mb 0.00 in0.0 mm 0.00 in0.0 mm 0.00 in0.0 mm
11:05 PM 2.9°F-16.2°C -6.5°F-21.4°C 64% 5.0 mph W8.0 kmh W -- 30.55 in1034.5 mb 0.00 in0.0 mm 0.00 in0.0 mm 0.00 in0.0 mm
11:10 PM 2.9°F-16.2°C -6.5°F-21.4°C 64% 4.0 mph NW6.4 kmh NW 10.0 mph16.1 kmh 30.55 in1034.5 mb 0.00 in0.0 mm 0.00 in0.0 mm 0.00 in0.0 mm
11:15 PM 2.8°F-16.2°C -6.6°F-21.4°C 64% 7.0 mph W11.3 kmh W 10.0 mph16.1 kmh 30.55 in1034.5 mb 0.00 in0.0 mm 0.00 in0.0 mm 0.00 in0.0 mm
11:20 PM 2.8°F-16.2°C -6.6°F-21.4°C 64% 10.0 mph WNW16.1 kmh WNW -- 30.55 in1034.5 mb 0.00 in0.0 mm 0.00 in0.0 mm 0.00 in0.0 mm
11:25 PM 2.9°F-16.2°C -6.5°F-21.4°C 64% 5.0 mph WNW8.0 kmh WNW -- 30.55 in1034.5 mb 0.00 in0.0 mm 0.00 in0.0 mm 0.00 in0.0 mm
11:30 PM 2.8°F-16.2°C -6.6°F-21.4°C 64% 8.0 mph WSW12.9 kmh WSW -- 30.56 in1034.9 mb 0.00 in0.0 mm 0.00 in0.0 mm 0.00 in0.0 mm
11:35 PM 2.8°F-16.2°C -6.6°F-21.4°C 64% 6.0 mph NW9.7 kmh NW -- 30.55 in1034.5 mb 0.00 in0.0 mm 0.00 in0.0 mm 0.00 in0.0 mm
11:40 PM 2.7°F-16.3°C -6.7°F-21.5°C 64% 6.0 mph W9.7 kmh W -- 30.56 in1034.9 mb 0.00 in0.0 mm 0.00 in0.0 mm 0.00 in0.0 mm
11:45 PM 2.7°F-16.3°C -6.7°F-21.5°C 64% 6.0 mph WNW9.7 kmh WNW -- 30.56 in1034.9 mb 0.00 in0.0 mm 0.00 in0.0 mm 0.00 in0.0 mm
11:50 PM 2.7°F-16.3°C -6.4°F-21.3°C 65% 2.0 mph WNW3.2 kmh WNW -- 30.56 in1034.9 mb 0.00 in0.0 mm 0.00 in0.0 mm 0.00 in0.0 mm
11:55 PM 2.6°F-16.3°C -6.4°F-21.3°C 65% 5.0 mph WSW8.0 kmh WSW -- 30.56 in1034.9 mb 0.00 in0.0 mm 0.00 in0.0 mm 0.00 in0.0 mm